createdAt,value
2022-08-09T00:00:04.519Z,67.22
2022-08-09T00:02:34.116Z,66.84
2022-08-09T00:06:15.537Z,66.58
2022-08-09T00:07:48.120Z,66.96
2022-08-09T00:10:21.257Z,66.86
2022-08-09T00:12:52.336Z,67.43
2022-08-09T00:15:35.279Z,67.84
2022-08-09T00:18:11.934Z,67.38
2022-08-09T00:20:42.517Z,67.06
2022-08-09T00:23:55.723Z,67.89
2022-08-09T00:26:04.857Z,69.40
2022-08-09T00:28:34.541Z,70.26
2022-08-09T00:31:01.364Z,69.45
2022-08-09T00:33:51.194Z,69.38
2022-08-09T00:36:18.827Z,69.41
2022-08-09T00:38:46.347Z,69.66
2022-08-09T00:44:10.023Z,69.48
2022-08-09T00:44:20.005Z,69.80
2022-08-09T00:46:57.701Z,70.66
2022-08-09T00:49:34.660Z,69.54
2022-08-09T00:52:05.486Z,69.78
2022-08-09T00:54:36.022Z,69.20
2022-08-09T00:57:10.143Z,70.12
2022-08-09T00:59:46.050Z,69.61
2022-08-09T01:02:22.210Z,71.17
2022-08-09T01:05:14.037Z,70.49
2022-08-09T01:08:00.935Z,70.40
2022-08-09T01:10:45.086Z,70.32
2022-08-09T01:13:24.380Z,70.34
2022-08-09T01:15:59.310Z,71.10
2022-08-09T01:18:32.398Z,70.87
2022-08-09T01:21:44.448Z,71.39
2022-08-09T01:24:19.751Z,71.90
2022-08-09T01:27:08.851Z,72.34
2022-08-09T01:29:55.670Z,72.32
2022-08-09T01:32:31.809Z,71.52
2022-08-09T01:35:18.044Z,71.69
2022-08-09T01:38:08.461Z,71.56
2022-08-09T01:40:41.130Z,72.25
2022-08-09T01:43:09.207Z,72.41
2022-08-09T01:45:46.000Z,72.21
2022-08-09T01:48:15.504Z,72.58
2022-08-09T01:50:48.317Z,72.75
2022-08-09T01:53:20.020Z,72.60
2022-08-09T01:55:48.638Z,72.72
2022-08-09T01:58:16.490Z,73.44
2022-08-09T02:00:45.342Z,72.93
2022-08-09T02:03:15.456Z,73.83
2022-08-09T02:06:04.199Z,73.53
2022-08-09T02:08:57.002Z,73.31
2022-08-09T02:11:21.956Z,73.62
2022-08-09T02:14:06.914Z,73.82
2022-08-09T02:16:53.177Z,74.90
2022-08-09T02:19:24.371Z,74.78
2022-08-09T02:22:08.199Z,74.30
2022-08-09T02:24:37.882Z,74.24
2022-08-09T02:27:10.402Z,73.91
2022-08-09T02:29:45.503Z,74.20
2022-08-09T02:32:18.688Z,74.29
2022-08-09T02:34:55.763Z,75.14
2022-08-09T02:37:31.634Z,75.24
2022-08-09T02:40:09.454Z,75.49
2022-08-09T02:42:39.472Z,74.53
2022-08-09T02:45:11.454Z,75.09
2022-08-09T02:47:57.362Z,76.41
2022-08-09T02:50:39.594Z,76.07
2022-08-09T02:53:17.346Z,75.47
2022-08-09T02:55:58.817Z,76.19
2022-08-09T02:58:35.845Z,76.10
2022-08-09T03:01:08.140Z,75.90
2022-08-09T03:04:17.448Z,76.23
2022-08-09T03:06:27.878Z,76.55
2022-08-09T03:08:55.458Z,76.66
2022-08-09T03:12:04.528Z,76.98
2022-08-09T03:14:12.038Z,76.92
2022-08-09T03:16:45.338Z,76.70
2022-08-09T03:19:59.588Z,76.91
2022-08-09T03:22:12.354Z,77.23
2022-08-09T03:25:05.951Z,77.11
2022-08-09T03:27:45.247Z,76.96
2022-08-09T03:30:13.541Z,76.94
2022-08-09T03:32:42.984Z,77.10
2022-08-09T03:35:24.199Z,77.22
2022-08-09T03:37:54.602Z,77.77
2022-08-09T03:40:23.206Z,77.45
2022-08-09T03:42:51.557Z,77.83
2022-08-09T03:46:04.449Z,77.00
2022-08-09T03:48:05.009Z,77.43
2022-08-09T03:50:34.981Z,76.77
2022-08-09T03:53:06.220Z,76.94
2022-08-09T03:55:41.318Z,77.05
2022-08-09T03:58:14.975Z,77.76
2022-08-09T04:00:48.904Z,77.77
2022-08-09T04:03:24.707Z,78.63
2022-08-09T04:06:04.716Z,78.13
2022-08-09T04:08:32.260Z,78.58
2022-08-09T04:11:01.371Z,78.70
2022-08-09T04:13:45.135Z,77.98
2022-08-09T04:16:20.692Z,78.72
2022-08-09T04:18:50.921Z,77.98
2022-08-09T04:21:17.957Z,78.64
2022-08-09T04:23:53.781Z,79.01
2022-08-09T04:26:23.416Z,79.17
2022-08-09T04:28:50.379Z,78.69
2022-08-09T04:31:16.985Z,79.34
2022-08-09T04:33:52.333Z,79.25
2022-08-09T04:36:25.212Z,78.79
2022-08-09T04:38:52.867Z,78.19
2022-08-09T04:41:24.036Z,78.37
2022-08-09T04:44:06.762Z,78.00
2022-08-09T04:46:57.473Z,77.54
2022-08-09T04:49:40.281Z,78.78
2022-08-09T04:52:10.720Z,78.60
2022-08-09T04:54:37.822Z,78.35
2022-08-09T04:57:04.655Z,78.56
2022-08-09T04:59:35.804Z,77.47
2022-08-09T05:02:03.219Z,77.72
2022-08-09T05:04:30.765Z,77.81
2022-08-09T05:06:58.099Z,77.33
2022-08-09T05:09:24.610Z,76.33
2022-08-09T05:11:51.542Z,76.51
2022-08-09T05:14:18.508Z,76.08
2022-08-09T05:16:59.163Z,75.79
2022-08-09T05:19:31.818Z,74.51
2022-08-09T05:22:35.970Z,73.91
2022-08-09T05:25:00.993Z,73.61
2022-08-09T05:27:29.188Z,72.94
2022-08-09T05:29:57.585Z,71.17
2022-08-09T05:32:25.530Z,70.07
2022-08-09T05:34:52.036Z,70.42
2022-08-09T05:37:18.642Z,69.29
2022-08-09T05:39:45.168Z,64.71
2022-08-09T05:42:17.438Z,57.80
2022-08-09T05:44:50.766Z,52.71
2022-08-09T05:47:22.784Z,48.02
2022-08-09T05:50:30.563Z,44.98
2022-08-09T05:52:38.732Z,45.16
2022-08-09T05:55:07.255Z,41.53
2022-08-09T05:57:50.814Z,39.71
2022-08-09T06:00:22.782Z,40.79
2022-08-09T06:02:49.453Z,38.38
2022-08-09T06:05:31.186Z,38.84
2022-08-09T06:08:09.152Z,37.83
2022-08-09T06:10:40.253Z,36.98
2022-08-09T06:13:12.297Z,34.95
2022-08-09T06:15:46.811Z,33.60
2022-08-09T06:18:14.105Z,32.40
2022-08-09T06:20:42.495Z,31.92
2022-08-09T06:23:11.964Z,31.63
2022-08-09T06:25:43.335Z,31.00
2022-08-09T06:28:10.307Z,29.01
2022-08-09T06:30:40.615Z,28.53
2022-08-09T06:33:30.422Z,29.31
2022-08-09T06:35:58.430Z,28.13
2022-08-09T06:38:32.171Z,28.41
2022-08-09T06:41:04.491Z,28.06
2022-08-09T06:43:34.383Z,27.90
2022-08-09T06:48:42.969Z,28.20
2022-08-09T06:51:11.243Z,27.77
2022-08-09T06:53:39.280Z,27.86
2022-08-09T06:56:07.954Z,28.12
2022-08-09T07:00:47.166Z,27.27
2022-08-09T07:01:24.301Z,28.22
2022-08-09T07:03:57.800Z,28.44
2022-08-09T07:06:30.033Z,28.49
2022-08-09T07:08:56.675Z,29.02
2022-08-09T07:11:25.262Z,28.47
2022-08-09T07:14:04.172Z,27.08
2022-08-09T07:16:41.262Z,27.44
2022-08-09T07:19:15.806Z,27.35
2022-08-09T07:21:55.961Z,27.64
2022-08-09T07:24:32.082Z,27.92
2022-08-09T07:27:21.081Z,27.44
2022-08-09T07:29:58.599Z,26.67
2022-08-09T07:32:32.818Z,25.60
2022-08-09T07:35:02.756Z,26.98
2022-08-09T07:37:42.966Z,27.50
2022-08-09T07:40:14.125Z,28.97
2022-08-09T07:42:54.450Z,29.00
2022-08-09T07:45:39.813Z,27.95
2022-08-09T07:48:28.763Z,27.28
2022-08-09T07:51:09.845Z,26.27
2022-08-09T07:54:05.698Z,26.01
2022-08-09T07:56:34.188Z,25.83
2022-08-09T07:59:00.703Z,26.01
2022-08-09T08:01:33.023Z,26.08
2022-08-09T08:04:04.549Z,24.15
2022-08-09T08:06:37.390Z,25.96
2022-08-09T08:09:35.543Z,23.93
2022-08-09T08:12:25.026Z,23.81
2022-08-09T08:14:55.490Z,23.68
2022-08-09T08:17:35.438Z,23.92
2022-08-09T08:20:12.654Z,22.94
2022-08-09T08:22:40.175Z,23.60
2022-08-09T08:25:13.236Z,23.49
2022-08-09T08:27:43.109Z,23.14
2022-08-09T08:30:13.873Z,23.85
2022-08-09T08:32:41.577Z,23.61
2022-08-09T08:35:22.262Z,23.97
2022-08-09T08:38:02.177Z,25.18
2022-08-09T08:40:36.041Z,24.11
2022-08-09T08:43:08.911Z,23.30
2022-08-09T08:46:09.834Z,23.16
2022-08-09T08:48:42.933Z,23.79
2022-08-09T08:51:18.687Z,23.73
2022-08-09T08:54:03.515Z,23.36
2022-08-09T08:56:37.643Z,23.26
2022-08-09T08:59:19.822Z,23.38
2022-08-09T09:01:52.073Z,24.14
2022-08-09T09:04:27.684Z,24.35
2022-08-09T09:06:58.056Z,24.76
2022-08-09T09:09:58.642Z,25.12
2022-08-09T09:12:18.682Z,25.99
2022-08-09T09:14:46.935Z,25.28
2022-08-09T09:17:16.530Z,24.78
2022-08-09T09:19:44.081Z,25.08
2022-08-09T09:22:16.406Z,24.38
2022-08-09T09:24:49.139Z,24.01
2022-08-09T09:28:06.184Z,24.80
2022-08-09T09:33:15.308Z,24.23
2022-08-09T09:36:02.744Z,23.47
2022-08-09T09:38:42.958Z,23.97
2022-08-09T09:41:10.786Z,24.80
2022-08-09T09:43:41.791Z,24.92
2022-08-09T09:46:42.109Z,23.44
2022-08-09T09:49:11.949Z,22.97
2022-08-09T09:51:40.563Z,23.09
2022-08-09T09:54:20.403Z,22.17
2022-08-09T09:56:53.468Z,22.46
2022-08-09T09:59:38.934Z,22.84
2022-08-09T10:02:06.529Z,22.37
2022-08-09T10:04:34.602Z,23.70
2022-08-09T10:07:03.307Z,23.90
2022-08-09T10:09:49.033Z,23.81
2022-08-09T10:12:28.512Z,23.74
2022-08-09T10:15:17.681Z,23.19
2022-08-09T10:17:56.362Z,22.56
2022-08-09T10:20:35.557Z,22.88
2022-08-09T10:23:22.768Z,22.23
2022-08-09T10:26:06.122Z,21.55
2022-08-09T10:28:35.799Z,20.06
2022-08-09T10:34:10.345Z,20.02
2022-08-09T10:36:37.364Z,19.71
2022-08-09T10:39:05.956Z,20.67
2022-08-09T10:41:42.898Z,20.02
2022-08-09T10:44:10.412Z,19.55
2022-08-09T10:47:28.151Z,21.02
2022-08-09T10:49:56.562Z,21.21
2022-08-09T10:52:50.356Z,21.05
2022-08-09T10:55:35.636Z,19.74
2022-08-09T10:58:33.719Z,19.52
2022-08-09T11:03:06.742Z,19.70
2022-08-09T11:04:28.311Z,22.45
2022-08-09T11:06:59.737Z,19.54
2022-08-09T11:09:47.446Z,19.15
2022-08-09T11:12:29.841Z,18.13
2022-08-09T11:15:18.975Z,18.51
2022-08-09T11:17:47.928Z,19.22
2022-08-09T11:20:38.879Z,19.04
2022-08-09T11:23:07.330Z,19.79
2022-08-09T11:25:47.395Z,20.48
2022-08-09T11:28:38.503Z,21.65
2022-08-09T11:31:53.183Z,21.93
2022-08-09T11:34:35.185Z,21.39
2022-08-09T11:37:03.521Z,20.20
2022-08-09T11:40:01.322Z,20.11
2022-08-09T11:42:38.971Z,20.20
2022-08-09T11:45:06.250Z,19.42
2022-08-09T11:47:46.418Z,19.94
2022-08-09T11:50:56.897Z,20.27
2022-08-09T11:53:16.307Z,21.33
2022-08-09T11:55:52.751Z,21.53
2022-08-09T11:58:30.475Z,20.15
2022-08-09T12:01:08.975Z,21.04
2022-08-09T12:03:56.222Z,20.25
2022-08-09T12:06:32.221Z,20.73
2022-08-09T12:09:02.817Z,21.35
2022-08-09T12:11:29.359Z,21.77
2022-08-09T12:14:07.133Z,22.18
2022-08-09T12:16:40.216Z,22.68
2022-08-09T12:19:11.322Z,21.28
2022-08-09T12:21:50.274Z,21.31
2022-08-09T12:24:24.922Z,22.05
2022-08-09T12:29:13.477Z,20.37
2022-08-09T12:30:04.186Z,21.04
2022-08-09T12:32:43.221Z,21.37
2022-08-09T12:35:14.573Z,22.78
2022-08-09T12:37:50.411Z,22.20
2022-08-09T12:40:21.186Z,21.64
2022-08-09T12:42:50.665Z,21.15
2022-08-09T12:45:33.557Z,20.69
2022-08-09T12:48:02.954Z,20.52
2022-08-09T12:50:29.589Z,19.39
2022-08-09T12:53:08.681Z,19.40
2022-08-09T12:56:14.458Z,18.24
2022-08-09T12:58:29.772Z,18.88
2022-08-09T13:00:57.629Z,18.49
2022-08-09T13:03:52.812Z,17.27
2022-08-09T13:06:34.785Z,17.74
2022-08-09T13:09:11.266Z,18.14
2022-08-09T13:11:45.368Z,16.68
2022-08-09T13:14:41.458Z,16.31
2022-08-09T13:17:04.175Z,15.61
2022-08-09T13:20:10.184Z,15.07
2022-08-09T13:22:36.094Z,14.86
2022-08-09T13:25:07.499Z,16.22
2022-08-09T13:27:40.136Z,15.21
2022-08-09T13:30:51.204Z,14.96
2022-08-09T13:33:04.797Z,14.52
2022-08-09T13:35:34.133Z,14.71
2022-08-09T13:38:02.339Z,14.90
2022-08-09T13:41:50.419Z,13.84
2022-08-09T13:43:16.149Z,13.62
2022-08-09T13:46:44.532Z,14.16
2022-08-09T13:48:32.224Z,13.55
2022-08-09T13:50:58.671Z,12.28
2022-08-09T13:53:28.534Z,14.64
2022-08-09T13:56:12.041Z,14.64
2022-08-09T13:58:38.724Z,13.86
2022-08-09T14:01:05.820Z,14.80
2022-08-09T14:04:03.477Z,15.53
2022-08-09T14:06:29.308Z,17.42
2022-08-09T14:08:56.102Z,17.90
2022-08-09T14:11:22.998Z,18.11
2022-08-09T14:14:24.136Z,17.52
2022-08-09T14:16:36.374Z,15.79
2022-08-09T14:19:03.809Z,15.91
2022-08-09T14:21:31.918Z,14.71
2022-08-09T14:24:01.266Z,14.73
2022-08-09T14:26:37.764Z,13.96
2022-08-09T14:29:08.165Z,13.85
2022-08-09T14:31:54.049Z,13.52
2022-08-09T14:34:31.067Z,14.12
2022-08-09T14:36:59.542Z,14.21
2022-08-09T14:39:40.489Z,13.62
2022-08-09T14:42:12.586Z,13.36
2022-08-09T14:44:48.996Z,13.08
2022-08-09T14:47:41.262Z,13.36
2022-08-09T14:50:12.169Z,15.07
2022-08-09T14:52:42.900Z,14.88
2022-08-09T14:55:09.759Z,13.67
2022-08-09T14:57:43.052Z,13.78
2022-08-09T15:00:11.057Z,13.27
2022-08-09T15:02:38.667Z,13.26
2022-08-09T15:05:07.111Z,13.57
2022-08-09T15:07:35.043Z,14.58
2022-08-09T15:10:10.339Z,14.62
2022-08-09T15:12:38.025Z,14.20
2022-08-09T15:15:08.656Z,14.07
2022-08-09T15:17:42.712Z,12.99
2022-08-09T15:20:15.394Z,13.43
2022-08-09T15:23:02.925Z,13.39
2022-08-09T15:25:45.101Z,13.61
2022-08-09T15:28:24.121Z,13.80
2022-08-09T15:31:10.361Z,14.23
2022-08-09T15:34:27.490Z,15.23
2022-08-09T15:36:30.306Z,17.69
2022-08-09T15:39:00.623Z,19.04
2022-08-09T15:41:31.634Z,19.49
2022-08-09T15:44:01.779Z,17.32
2022-08-09T15:46:32.900Z,15.67
2022-08-09T15:49:23.101Z,14.72
2022-08-09T15:52:04.726Z,14.47
2022-08-09T15:54:49.043Z,16.24
2022-08-09T15:57:34.625Z,18.09
2022-08-09T16:00:14.582Z,19.71
2022-08-09T16:02:48.038Z,19.93
2022-08-09T16:05:22.007Z,20.89
2022-08-09T16:07:49.496Z,21.61
2022-08-09T16:10:55.456Z,22.62
2022-08-09T16:13:03.930Z,21.96
2022-08-09T16:16:04.562Z,22.01
2022-08-09T16:18:17.110Z,22.68
2022-08-09T16:20:46.559Z,23.00
2022-08-09T16:23:13.202Z,23.02
2022-08-09T16:25:40.888Z,24.12
2022-08-09T16:28:07.588Z,24.23
2022-08-09T16:30:38.407Z,24.33
2022-08-09T16:33:11.449Z,23.85
2022-08-09T16:35:57.078Z,24.09
2022-08-09T16:38:26.653Z,24.58
2022-08-09T16:40:53.263Z,24.77
2022-08-09T16:43:21.053Z,24.52
2022-08-09T16:45:48.103Z,24.61
2022-08-09T16:48:43.170Z,24.58
2022-08-09T16:51:14.069Z,24.50
2022-08-09T16:54:26.275Z,25.52
2022-08-09T16:56:34.014Z,24.81
2022-08-09T16:59:06.895Z,24.77
2022-08-09T17:01:36.944Z,25.17
2022-08-09T17:04:06.519Z,25.00
2022-08-09T17:06:47.502Z,25.57
2022-08-09T17:09:45.564Z,25.70
2022-08-09T17:12:07.045Z,25.92
2022-08-09T17:14:34.141Z,25.87
2022-08-09T17:17:03.470Z,25.67
2022-08-09T17:20:04.969Z,25.90
2022-08-09T17:22:31.557Z,26.29
2022-08-09T17:25:03.294Z,26.65
2022-08-09T17:27:31.642Z,26.76
2022-08-09T17:29:58.124Z,26.54
2022-08-09T17:32:26.686Z,27.06
2022-08-09T17:35:11.370Z,27.05
2022-08-09T17:38:11.543Z,27.06
2022-08-09T17:40:27.422Z,27.12
2022-08-09T17:42:59.220Z,27.31
2022-08-09T17:45:45.570Z,26.88
2022-08-09T17:48:15.003Z,27.34
2022-08-09T17:50:48.558Z,27.22
2022-08-09T17:53:23.340Z,26.88
2022-08-09T17:55:57.096Z,27.51
2022-08-09T17:58:27.409Z,28.04
2022-08-09T18:00:56.763Z,28.48
2022-08-09T18:03:26.125Z,28.46
2022-08-09T18:05:56.781Z,28.04
2022-08-09T18:08:27.463Z,28.78
2022-08-09T18:11:00.718Z,28.64
2022-08-09T18:13:39.999Z,29.36
2022-08-09T18:16:14.777Z,29.34
2022-08-09T18:18:49.020Z,28.92
2022-08-09T18:21:23.184Z,29.42
2022-08-09T18:24:09.944Z,30.55
2022-08-09T18:26:37.915Z,30.42
2022-08-09T18:30:38.509Z,29.90
2022-08-09T18:31:56.374Z,30.40
2022-08-09T18:34:23.914Z,30.87
2022-08-09T18:36:50.863Z,31.28
2022-08-09T18:39:22.096Z,31.57
2022-08-09T18:41:52.937Z,31.87
2022-08-09T18:44:22.890Z,31.82
2022-08-09T18:47:04.189Z,32.03
2022-08-09T18:49:41.570Z,32.37
2022-08-09T18:52:10.273Z,32.96
2022-08-09T18:54:38.724Z,33.17
2022-08-09T18:57:06.814Z,33.50
2022-08-09T18:59:37.488Z,33.96
2022-08-09T19:02:19.312Z,34.40
2022-08-09T19:04:48.067Z,34.71
2022-08-09T19:07:31.831Z,35.17
2022-08-09T19:10:16.708Z,35.59
2022-08-09T19:12:45.523Z,35.60
2022-08-09T19:15:18.097Z,36.17
2022-08-09T19:17:54.581Z,36.76
2022-08-09T19:20:25.754Z,37.43
2022-08-09T19:22:54.591Z,37.85
2022-08-09T19:25:42.507Z,37.88
2022-08-09T19:28:13.380Z,38.67
2022-08-09T19:30:44.726Z,38.77
2022-08-09T19:33:19.210Z,39.96
2022-08-09T19:35:58.004Z,40.24
2022-08-09T19:38:26.987Z,41.19
2022-08-09T19:40:54.030Z,43.10
2022-08-09T19:43:57.869Z,43.78
2022-08-09T19:46:08.576Z,43.90
2022-08-09T19:49:00.858Z,44.10
2022-08-09T19:51:30.649Z,44.12
2022-08-09T19:54:01.143Z,45.64
2022-08-09T19:56:29.501Z,45.88
2022-08-09T19:59:39.513Z,45.57
2022-08-09T20:01:52.567Z,45.62
2022-08-09T20:04:37.463Z,46.97
2022-08-09T20:07:12.411Z,46.59
2022-08-09T20:09:47.570Z,47.47
2022-08-09T20:12:30.194Z,47.87
2022-08-09T20:15:04.696Z,48.61
2022-08-09T20:17:54.730Z,49.38
2022-08-09T20:20:21.552Z,49.09
2022-08-09T20:22:48.629Z,48.79
2022-08-09T20:25:22.892Z,48.95
2022-08-09T20:27:49.657Z,48.98
2022-08-09T20:30:17.772Z,49.26
2022-08-09T20:32:45.685Z,49.27
2022-08-09T20:35:15.921Z,49.34
2022-08-09T20:38:24.059Z,49.78
2022-08-09T20:40:30.179Z,50.27
2022-08-09T20:42:59.874Z,51.41
2022-08-09T20:45:58.619Z,50.92
2022-08-09T20:48:31.007Z,51.73
2022-08-09T20:50:58.712Z,51.44
2022-08-09T20:53:36.798Z,51.39
2022-08-09T20:56:06.550Z,51.51
2022-08-09T20:58:35.751Z,51.87
2022-08-09T21:01:33.507Z,52.30
2022-08-09T21:05:49.146Z,53.49
2022-08-09T21:06:42.534Z,53.12
2022-08-09T21:09:14.118Z,54.21
2022-08-09T21:14:31.114Z,53.81
2022-08-09T21:16:59.341Z,54.21
2022-08-09T21:20:18.317Z,54.34
2022-08-09T21:22:38.342Z,54.67
2022-08-09T21:25:18.642Z,54.27
2022-08-09T21:27:52.119Z,54.50
2022-08-09T21:30:20.040Z,55.17
2022-08-09T21:32:49.622Z,55.23
2022-08-09T21:35:16.902Z,56.61
2022-08-09T21:37:47.342Z,56.45
2022-08-09T21:40:30.167Z,57.09
2022-08-09T21:43:01.312Z,56.80
2022-08-09T21:45:28.259Z,57.60
2022-08-09T21:47:55.664Z,57.28
2022-08-09T21:50:36.211Z,57.63
2022-08-09T21:53:06.570Z,57.94
2022-08-09T21:55:46.538Z,58.01
2022-08-09T21:58:13.519Z,58.64
2022-08-09T22:00:40.698Z,58.48
2022-08-09T22:03:19.497Z,59.25
2022-08-09T22:05:52.213Z,59.71
2022-08-09T22:08:18.988Z,59.50
2022-08-09T22:11:50.054Z,59.24
2022-08-09T22:13:36.612Z,60.16
2022-08-09T22:16:07.889Z,60.20
2022-08-09T22:18:37.105Z,60.19
2022-08-09T22:21:09.313Z,60.80
2022-08-09T22:23:59.728Z,61.36
2022-08-09T22:26:34.719Z,60.63
2022-08-09T22:29:07.566Z,61.23
2022-08-09T22:31:36.665Z,60.56
2022-08-09T22:34:03.463Z,60.84
2022-08-09T22:36:45.646Z,61.40
2022-08-09T22:39:46.645Z,61.76
2022-08-09T22:42:00.328Z,62.30
2022-08-09T22:44:32.743Z,61.71
2022-08-09T22:48:15.363Z,63.33
2022-08-09T22:49:46.650Z,63.11
2022-08-09T22:52:13.167Z,63.79
2022-08-09T22:54:42.303Z,63.42
2022-08-09T22:57:13.850Z,63.08
2022-08-09T22:59:57.431Z,63.47
2022-08-09T23:02:25.713Z,63.45
2022-08-09T23:04:54.696Z,63.85
2022-08-09T23:08:21.983Z,63.74
2022-08-09T23:10:31.638Z,63.37
2022-08-09T23:12:58.943Z,63.46
2022-08-09T23:15:26.370Z,64.15
2022-08-09T23:17:52.827Z,64.33
2022-08-09T23:20:19.410Z,65.14
2022-08-09T23:22:46.046Z,65.40
2022-08-09T23:25:12.527Z,65.29
2022-08-09T23:28:14.972Z,65.94
2022-08-09T23:30:25.400Z,65.56
2022-08-09T23:32:51.837Z,65.41
2022-08-09T23:35:18.361Z,64.78
2022-08-09T23:37:44.784Z,67.26
2022-08-09T23:40:12.000Z,66.45
2022-08-09T23:42:38.513Z,66.44
2022-08-09T23:45:08.975Z,66.07
2022-08-09T23:47:36.047Z,66.56
2022-08-09T23:50:03.086Z,66.22
2022-08-09T23:52:29.590Z,66.62
2022-08-09T23:54:57.430Z,65.85
2022-08-09T23:57:23.880Z,67.19
